Time;durP1;ratioP1;P1;durP2;ratioP2;P2;SDS_P1;SDS_P2;PMS_P1;PMS_P2;Temp;Humidity;BMP_temperature;BMP_pressure;BME280_temperature;BME280_humidity;BME280_pressure;Samples;Min_cycle;Max_cycle;Signal;HPM_P1;HPM_P2
2022/09/12 00:01:22;;;;;;;9.23;4.10;;;;;;;;;;7386890;19;20054;-75
2022/09/12 00:03:51;;;;;;;8.15;4.65;;;;;;;;;;7388343;19;19998;-75
2022/09/12 00:06:24;;;;;;;10.57;5.38;;;;;;;;;;7386266;19;20346;-75
2022/09/12 00:08:52;;;;;;;8.90;4.50;;;;;;;;;;7386618;19;19994;-75
2022/09/12 00:11:17;;;;;;;12.98;5.25;;;;;;;;;;7386801;19;19995;-75
2022/09/12 00:13:43;;;;;;;10.50;4.20;;;;;;;;;;7387344;19;20484;-75
2022/09/12 00:16:23;;;;;;;9.98;5.07;;;;;;;;;;7387719;19;20365;-74
2022/09/12 00:18:49;;;;;;;12.30;5.03;;;;;;;;;;7384746;19;20341;-75
2022/09/12 00:21:16;;;;;;;8.23;4.05;;;;;;;;;;7394736;19;20003;-75
2022/09/12 00:23:45;;;;;;;7.55;3.83;;;;;;;;;;7395245;19;20009;-74
2022/09/12 00:26:11;;;;;;;8.07;4.22;;;;;;;;;;7398787;19;20006;-75
2022/09/12 00:28:38;;;;;;;7.82;4.18;;;;;;;;;;7394202;19;19991;-75
2022/09/12 00:31:05;;;;;;;7.53;3.75;;;;;;;;;;7393921;19;20009;-75
2022/09/12 00:33:31;;;;;;;8.23;3.92;;;;;;;;;;7393609;19;20343;-75
2022/09/12 00:35:56;;;;;;;7.20;3.97;;;;;;;;;;7415103;19;19995;-75
2022/09/12 00:38:22;;;;;;;12.43;5.05;;;;;;;;;;7421471;19;20006;-75
2022/09/12 00:40:48;;;;;;;13.57;6.03;;;;;;;;;;7422619;19;19994;-75
2022/09/12 00:43:14;;;;;;;9.20;5.13;;;;;;;;;;7399710;19;20006;-75
2022/09/12 00:45:41;;;;;;;9.48;4.68;;;;;;;;;;7394938;19;19998;-74
2022/09/12 00:48:21;;;;;;;8.77;4.47;;;;;;;;;;7393564;19;20433;-75
2022/09/12 00:50:47;;;;;;;8.85;4.10;;;;;;;;;;7393761;19;20058;-74
2022/09/12 00:53:12;;;;;;;23.05;4.22;;;;;;;;;;7392094;19;19994;-74
2022/09/12 00:55:41;;;;;;;9.23;4.85;;;;;;;;;;7393320;19;19998;-74
2022/09/12 00:58:12;;;;;;;11.70;5.15;;;;;;;;;;7392425;19;20002;-74
2022/09/12 01:00:40;;;;;;;10.68;4.65;;;;;;;;;;7393001;19;20114;-74
2022/09/12 01:03:10;;;;;;;10.32;5.10;;;;;;;;;;7392411;19;20002;-74
2022/09/12 01:05:39;;;;;;;8.43;4.63;;;;;;;;;;7393025;19;19995;-75
2022/09/12 01:08:05;;;;;;;9.25;4.43;;;;;;;;;;7392510;19;19998;-75
2022/09/12 01:10:34;;;;;;;10.45;4.63;;;;;;;;;;7393459;19;20361;-74
2022/09/12 01:13:02;;;;;;;9.75;4.47;;;;;;;;;;7391976;19;20031;-74
2022/09/12 01:15:27;;;;;;;8.45;4.72;;;;;;;;;;7390856;19;19999;-74
2022/09/12 01:18:17;;;;;;;11.32;4.47;;;;;;;;;;7392413;19;19994;-74
2022/09/12 01:20:56;;;;;;;8.40;4.53;;;;;;;;;;7393140;19;20062;-74
2022/09/12 01:24:05;;;;;;;9.38;4.35;;;;;;;;;;7391962;19;20027;-74
2022/09/12 01:26:36;;;;;;;6.88;4.07;;;;;;;;;;7390968;19;20007;-74
2022/09/12 01:29:12;;;;;;;9.95;4.82;;;;;;;;;;7391525;19;20003;-74
2022/09/12 01:31:53;;;;;;;8.27;4.55;;;;;;;;;;7391793;19;20038;-75
2022/09/12 01:34:39;;;;;;;9.52;5.35;;;;;;;;;;7390974;19;20006;-75
2022/09/12 01:37:27;;;;;;;8.95;4.72;;;;;;;;;;7391890;19;20019;-74
2022/09/12 01:40:17;;;;;;;9.63;5.43;;;;;;;;;;7390016;19;20003;-75
2022/09/12 01:43:10;;;;;;;9.20;5.30;;;;;;;;;;7391457;19;20026;-75
2022/09/12 01:45:45;;;;;;;12.35;6.43;;;;;;;;;;7392078;19;20002;-75
2022/09/12 01:48:18;;;;;;;7.10;3.58;;;;;;;;;;7391433;19;20010;-76
2022/09/12 01:51:19;;;;;;;13.43;4.60;;;;;;;;;;7391235;19;20021;-74
2022/09/12 01:53:50;;;;;;;9.50;4.20;;;;;;;;;;7384851;19;19995;-74
2022/09/12 01:56:25;;;;;;;8.82;4.22;;;;;;;;;;7387252;19;20002;-74
2022/09/12 01:59:04;;;;;;;13.30;4.82;;;;;;;;;;7393505;19;20007;-74
2022/09/12 02:01:37;;;;;;;11.48;5.25;;;;;;;;;;7389339;19;20305;-74
2022/09/12 02:04:08;;;;;;;10.00;4.35;;;;;;;;;;7388407;19;20070;-75
2022/09/12 02:06:47;;;;;;;11.23;5.35;;;;;;;;;;7391620;19;20006;-75
2022/09/12 02:09:20;;;;;;;10.15;4.70;;;;;;;;;;7390392;19;20010;-75
2022/09/12 02:11:48;;;;;;;10.73;4.97;;;;;;;;;;7391040;19;20010;-75
2022/09/12 02:14:23;;;;;;;8.38;5.00;;;;;;;;;;7392238;19;20002;-75
2022/09/12 02:16:58;;;;;;;10.60;5.88;;;;;;;;;;7386197;19;20015;-75
2022/09/12 02:19:27;;;;;;;15.20;5.90;;;;;;;;;;7391035;19;20006;-75
2022/09/12 02:21:55;;;;;;;10.00;5.03;;;;;;;;;;7393333;19;20035;-74
2022/09/12 02:24:24;;;;;;;12.55;6.25;;;;;;;;;;7387675;19;20002;-74
2022/09/12 02:26:56;;;;;;;10.77;5.90;;;;;;;;;;7388746;19;20013;-75
2022/09/12 02:29:22;;;;;;;11.45;5.00;;;;;;;;;;7389228;19;20002;-75
2022/09/12 02:31:56;;;;;;;11.48;6.32;;;;;;;;;;7389863;19;20003;-76
2022/09/12 02:34:40;;;;;;;8.68;4.40;;;;;;;;;;7389145;19;20099;-75
2022/09/12 02:37:30;;;;;;;8.85;4.65;;;;;;;;;;7390045;19;20460;-74
2022/09/12 02:39:57;;;;;;;7.97;5.13;;;;;;;;;;7386938;19;20019;-74
2022/09/12 02:42:23;;;;;;;10.45;5.47;;;;;;;;;;7389117;19;20099;-74
2022/09/12 02:44:51;;;;;;;10.45;4.75;;;;;;;;;;7390701;19;19995;-76
2022/09/12 02:47:31;;;;;;;15.15;5.18;;;;;;;;;;7391815;19;20487;-74
2022/09/12 02:49:57;;;;;;;11.40;5.93;;;;;;;;;;7388742;19;20472;-75
2022/09/12 02:52:23;;;;;;;9.55;5.07;;;;;;;;;;7387670;19;20002;-75
2022/09/12 02:54:49;;;;;;;9.25;5.05;;;;;;;;;;7386334;19;20017;-75
2022/09/12 02:57:17;;;;;;;10.82;5.30;;;;;;;;;;7389361;19;20480;-74
2022/09/12 02:59:42;;;;;;;8.25;4.57;;;;;;;;;;7385888;19;20002;-74
2022/09/12 03:02:17;;;;;;;8.40;4.38;;;;;;;;;;7389240;19;19999;-75
2022/09/12 03:05:08;;;;;;;10.80;5.32;;;;;;;;;;7389715;19;20017;-75
2022/09/12 03:07:55;;;;;;;8.55;4.63;;;;;;;;;;7387272;19;20025;-75
2022/09/12 03:10:58;;;;;;;9.35;4.35;;;;;;;;;;7387129;19;20006;-75
2022/09/12 03:13:37;;;;;;;9.48;5.10;;;;;;;;;;7387756;19;20006;-75
2022/09/12 03:16:30;;;;;;;8.88;4.65;;;;;;;;;;7388748;19;20046;-75
2022/09/12 03:19:13;;;;;;;10.20;5.05;;;;;;;;;;7385410;19;20086;-75
2022/09/12 03:21:51;;;;;;;9.40;4.15;;;;;;;;;;7388119;19;20010;-74
2022/09/12 03:24:38;;;;;;;9.63;5.25;;;;;;;;;;7389074;19;20003;-75
2022/09/12 03:27:14;;;;;;;9.85;4.97;;;;;;;;;;7388729;19;20010;-75
2022/09/12 03:29:40;;;;;;;9.85;4.95;;;;;;;;;;7386557;19;20496;-75
2022/09/12 03:32:06;;;;;;;11.88;5.47;;;;;;;;;;7387546;19;20006;-75
2022/09/12 03:34:32;;;;;;;9.40;5.60;;;;;;;;;;7387492;19;20062;-75
2022/09/12 03:36:58;;;;;;;9.13;4.78;;;;;;;;;;7386582;19;20069;-75
2022/09/12 03:39:25;;;;;;;10.80;5.72;;;;;;;;;;7387926;19;19998;-75
2022/09/12 03:41:51;;;;;;;11.70;5.45;;;;;;;;;;7387859;19;20006;-74
2022/09/12 03:44:17;;;;;;;12.93;5.25;;;;;;;;;;7388381;19;20485;-74
2022/09/12 03:46:43;;;;;;;8.23;4.63;;;;;;;;;;7387910;19;20006;-75
2022/09/12 03:49:09;;;;;;;9.73;5.35;;;;;;;;;;7386972;19;20024;-76
2022/09/12 03:51:35;;;;;;;11.50;5.55;;;;;;;;;;7386635;19;19998;-75
2022/09/12 03:54:00;;;;;;;13.02;5.68;;;;;;;;;;7387640;19;20011;-75
2022/09/12 03:56:26;;;;;;;11.27;5.63;;;;;;;;;;7394751;19;20868;-75
2022/09/12 03:58:54;;;;;;;11.70;5.68;;;;;;;;;;7394700;19;19998;-75
2022/09/12 04:01:20;;;;;;;10.80;5.55;;;;;;;;;;7395462;19;20002;-75
2022/09/12 04:03:48;;;;;;;17.30;6.28;;;;;;;;;;7395689;19;20526;-75
2022/09/12 04:06:17;;;;;;;11.23;4.80;;;;;;;;;;7396174;19;20005;-75
2022/09/12 04:08:46;;;;;;;11.15;5.93;;;;;;;;;;7394960;19;19999;-75
2022/09/12 04:11:16;;;;;;;9.05;5.47;;;;;;;;;;7395648;19;20399;-75
2022/09/12 04:13:43;;;;;;;11.10;5.70;;;;;;;;;;7393411;19;20094;-76
2022/09/12 04:16:09;;;;;;;7.10;4.45;;;;;;;;;;7395087;19;20006;-75
2022/09/12 04:18:38;;;;;;;11.35;5.68;;;;;;;;;;7394464;19;20002;-75
2022/09/12 04:21:15;;;;;;;11.02;5.07;;;;;;;;;;7395265;19;19998;-75
2022/09/12 04:23:40;;;;;;;13.85;5.22;;;;;;;;;;7393081;19;20476;-75
2022/09/12 04:26:06;;;;;;;14.02;4.93;;;;;;;;;;7394740;19;20001;-75
2022/09/12 04:28:33;;;;;;;9.48;4.38;;;;;;;;;;7393779;19;20003;-76
2022/09/12 04:31:04;;;;;;;11.32;5.63;;;;;;;;;;7394980;19;20001;-74
2022/09/12 04:33:30;;;;;;;;;;;;;;;;;;7394578;19;20083;-74
2022/09/12 04:35:55;;;;;;;7.93;4.25;;;;;;;;;;7393863;19;19922;-75
2022/09/12 04:38:20;;;;;;;11.02;5.88;;;;;;;;;;7397316;19;20006;-75
2022/09/12 04:40:46;;;;;;;8.00;5.00;;;;;;;;;;7396752;19;19995;-75
2022/09/12 04:43:11;;;;;;;8.40;4.10;;;;;;;;;;7397495;19;20473;-74
2022/09/12 04:45:37;;;;;;;9.45;5.38;;;;;;;;;;7399942;19;20005;-75
2022/09/12 04:48:02;;;;;;;9.88;4.97;;;;;;;;;;7424402;19;20058;-76
2022/09/12 04:50:28;;;;;;;9.40;4.20;;;;;;;;;;7418600;19;20002;-75
2022/09/12 04:52:54;;;;;;;11.95;4.72;;;;;;;;;;7396779;19;20002;-75
2022/09/12 04:55:21;;;;;;;9.60;4.85;;;;;;;;;;7327245;19;20027;-75
2022/09/12 04:57:49;;;;;;;9.70;4.78;;;;;;;;;;7387723;19;20009;-75
2022/09/12 05:00:15;;;;;;;10.07;4.85;;;;;;;;;;7394436;19;20419;-75
2022/09/12 05:02:48;;;;;;;11.30;4.90;;;;;;;;;;7393148;19;20063;-74
2022/09/12 05:05:13;;;;;;;6.95;3.72;;;;;;;;;;7395591;19;20405;-75
2022/09/12 05:07:48;;;;;;;13.70;5.32;;;;;;;;;;7391544;19;19991;-76
2022/09/12 05:10:13;;;;;;;9.63;4.97;;;;;;;;;;7392794;19;20024;-74
2022/09/12 05:12:38;;;;;;;8.50;4.95;;;;;;;;;;7392061;19;19999;-75
2022/09/12 05:15:05;;;;;;;11.23;5.38;;;;;;;;;;7392182;19;19995;-75
2022/09/12 05:17:30;;;;;;;17.63;6.25;;;;;;;;;;7395674;19;20040;-74
2022/09/12 05:19:56;;;;;;;9.02;4.82;;;;;;;;;;7394520;19;20599;-73
2022/09/12 05:22:21;;;;;;;8.73;5.03;;;;;;;;;;7393651;19;20007;-73
2022/09/12 05:24:47;;;;;;;9.18;4.57;;;;;;;;;;7394868;19;20011;-74
2022/09/12 05:27:13;;;;;;;8.63;5.65;;;;;;;;;;7392893;19;20007;-73
2022/09/12 05:29:38;;;;;;;8.93;4.55;;;;;;;;;;7392376;19;19998;-73
2022/09/12 05:32:04;;;;;;;9.65;4.47;;;;;;;;;;7391053;19;20321;-73
2022/09/12 05:34:29;;;;;;;10.02;5.30;;;;;;;;;;7386566;19;20322;-73
2022/09/12 05:36:55;;;;;;;7.60;4.72;;;;;;;;;;7389992;19;19991;-74
2022/09/12 05:39:20;;;;;;;8.88;4.43;;;;;;;;;;7388051;19;20507;-73
2022/09/12 05:41:46;;;;;;;12.57;5.40;;;;;;;;;;7389903;19;20022;-73
2022/09/12 05:44:13;;;;;;;12.25;5.18;;;;;;;;;;7392488;19;20006;-74
2022/09/12 05:46:40;;;;;;;6.80;3.85;;;;;;;;;;7391721;19;20318;-74
2022/09/12 05:49:11;;;;;;;7.32;3.70;;;;;;;;;;7392098;19;20022;-74
2022/09/12 05:51:40;;;;;;;6.68;3.72;;;;;;;;;;7394986;19;20475;-74
2022/09/12 05:54:07;;;;;;;6.80;3.92;;;;;;;;;;7392712;19;20014;-78
2022/09/12 05:56:38;;;;;;;8.55;4.70;;;;;;;;;;7395110;19;20010;-74
2022/09/12 05:59:06;;;;;;;7.90;4.25;;;;;;;;;;7389600;19;20022;-72
2022/09/12 06:01:33;;;;;;;7.20;3.95;;;;;;;;;;7388327;19;20006;-73
2022/09/12 06:04:02;;;;;;;7.85;4.28;;;;;;;;;;7392776;19;20003;-73
2022/09/12 06:06:30;;;;;;;6.10;3.50;;;;;;;;;;7394229;19;20006;-72
2022/09/12 06:09:00;;;;;;;6.65;3.58;;;;;;;;;;7393702;19;20014;-72
2022/09/12 06:11:29;;;;;;;6.70;3.78;;;;;;;;;;7393000;19;19999;-71
2022/09/12 06:13:56;;;;;;;7.00;3.75;;;;;;;;;;7390781;19;20430;-72
2022/09/12 06:16:24;;;;;;;6.18;3.63;;;;;;;;;;7395415;19;20072;-73
2022/09/12 06:18:58;;;;;;;7.60;4.03;;;;;;;;;;7391124;19;20006;-73
2022/09/12 06:21:27;;;;;;;7.80;4.60;;;;;;;;;;7390383;19;20650;-71
2022/09/12 06:23:54;;;;;;;7.63;4.05;;;;;;;;;;7391748;19;20010;-72
2022/09/12 06:26:22;;;;;;;9.10;4.35;;;;;;;;;;7389400;19;20023;-73
2022/09/12 06:28:48;;;;;;;6.60;3.65;;;;;;;;;;7386966;19;20006;-72
2022/09/12 06:31:17;;;;;;;6.70;4.10;;;;;;;;;;7281560;19;20002;-72
2022/09/12 06:33:46;;;;;;;7.28;3.85;;;;;;;;;;7388286;19;19994;-72
2022/09/12 06:36:14;;;;;;;7.75;4.20;;;;;;;;;;7389361;19;20329;-71
2022/09/12 06:38:40;;;;;;;6.90;3.88;;;;;;;;;;7390662;19;19999;-72
2022/09/12 06:41:09;;;;;;;8.15;4.38;;;;;;;;;;7393154;19;20395;-72
2022/09/12 06:43:34;;;;;;;7.80;3.90;;;;;;;;;;7393034;19;20110;-72
2022/09/12 06:46:01;;;;;;;8.70;4.13;;;;;;;;;;7388934;19;20032;-71
2022/09/12 06:48:26;;;;;;;7.43;3.67;;;;;;;;;;7391072;19;20386;-71
2022/09/12 06:50:59;;;;;;;6.78;4.05;;;;;;;;;;7392062;19;19999;-71
2022/09/12 06:53:26;;;;;;;5.38;3.35;;;;;;;;;;7392158;19;20012;-71
2022/09/12 06:55:56;;;;;;;6.60;3.92;;;;;;;;;;7390115;19;20002;-72
2022/09/12 06:58:22;;;;;;;;;;;;;;;;;;7381280;19;20342;-72
2022/09/12 07:00:47;;;;;;;6.82;3.67;;;;;;;;;;7387938;19;19921;-72
2022/09/12 07:03:12;;;;;;;6.40;3.65;;;;;;;;;;7391111;19;20371;-71
2022/09/12 07:05:40;;;;;;;5.75;3.92;;;;;;;;;;7392209;19;19994;-71
2022/09/12 07:08:06;;;;;;;7.32;4.28;;;;;;;;;;7390848;19;20378;-72
2022/09/12 07:10:31;;;;;;;6.72;3.45;;;;;;;;;;7391153;19;20002;-69
2022/09/12 07:12:57;;;;;;;6.47;3.92;;;;;;;;;;7389743;19;19999;-71
2022/09/12 07:15:23;;;;;;;7.22;4.22;;;;;;;;;;7391574;19;20368;-71
2022/09/12 07:17:48;;;;;;;5.47;3.22;;;;;;;;;;7388064;19;20017;-71
2022/09/12 07:20:16;;;;;;;6.43;3.88;;;;;;;;;;7390568;19;20007;-70
2022/09/12 07:22:41;;;;;;;6.32;3.78;;;;;;;;;;7388394;19;20052;-70
2022/09/12 07:25:07;;;;;;;6.50;3.65;;;;;;;;;;7391072;19;20464;-71
2022/09/12 07:27:33;;;;;;;7.57;4.05;;;;;;;;;;7392009;19;20006;-70
2022/09/12 07:29:59;;;;;;;5.97;3.80;;;;;;;;;;7387977;19;20027;-71
2022/09/12 07:32:24;;;;;;;6.13;3.63;;;;;;;;;;7389509;19;20603;-71
2022/09/12 07:34:51;;;;;;;7.07;3.67;;;;;;;;;;7388927;19;20058;-71
2022/09/12 07:37:16;;;;;;;6.78;4.15;;;;;;;;;;7391309;19;20002;-72
2022/09/12 07:39:42;;;;;;;7.10;3.85;;;;;;;;;;7389886;19;19995;-71
2022/09/12 07:42:07;;;;;;;5.88;3.47;;;;;;;;;;7390706;19;19998;-72
2022/09/12 07:44:32;;;;;;;6.72;4.30;;;;;;;;;;7387434;19;20451;-72
2022/09/12 07:46:58;;;;;;;6.07;4.03;;;;;;;;;;7390740;19;19999;-72
2022/09/12 07:49:23;;;;;;;7.75;4.03;;;;;;;;;;7389397;19;20027;-71
2022/09/12 07:51:48;;;;;;;6.80;4.00;;;;;;;;;;7387819;19;20080;-72
2022/09/12 07:54:14;;;;;;;8.75;4.22;;;;;;;;;;7388248;19;20032;-72
2022/09/12 07:56:40;;;;;;;6.78;4.10;;;;;;;;;;7390875;19;20033;-72
2022/09/12 07:59:08;;;;;;;5.80;3.72;;;;;;;;;;7388149;19;20001;-72
2022/09/12 08:01:33;;;;;;;8.18;3.95;;;;;;;;;;7390571;19;20014;-72
2022/09/12 08:03:59;;;;;;;5.78;3.40;;;;;;;;;;7390387;19;20003;-72
2022/09/12 08:06:27;;;;;;;7.32;3.88;;;;;;;;;;7387201;19;19999;-72
2022/09/12 08:08:55;;;;;;;6.32;3.65;;;;;;;;;;7388155;19;20017;-71
2022/09/12 08:11:24;;;;;;;7.22;3.92;;;;;;;;;;7388885;19;20002;-71
2022/09/12 08:13:51;;;;;;;6.53;3.47;;;;;;;;;;7387133;19;20035;-69
2022/09/12 08:16:20;;;;;;;6.47;3.70;;;;;;;;;;7388138;19;19995;-70
2022/09/12 08:18:47;;;;;;;9.53;3.83;;;;;;;;;;7387410;19;20467;-70
2022/09/12 08:21:13;;;;;;;6.88;4.00;;;;;;;;;;7389113;19;20331;-69
2022/09/12 08:23:39;;;;;;;8.18;4.20;;;;;;;;;;7391555;19;20344;-68
2022/09/12 08:26:05;;;;;;;6.68;4.15;;;;;;;;;;7389736;19;19995;-70
2022/09/12 08:28:32;;;;;;;9.68;4.15;;;;;;;;;;7385732;19;20003;-69
2022/09/12 08:31:06;;;;;;;8.50;4.50;;;;;;;;;;7386662;19;20002;-70
2022/09/12 08:33:32;;;;;;;7.10;4.18;;;;;;;;;;7389020;19;20875;-70
2022/09/12 08:36:10;;;;;;;6.25;3.67;;;;;;;;;;7385672;19;20003;-70
2022/09/12 08:38:37;;;;;;;7.88;3.95;;;;;;;;;;7387971;19;19999;-70
2022/09/12 08:41:07;;;;;;;6.30;3.50;;;;;;;;;;7390329;19;20001;-71
2022/09/12 08:43:54;;;;;;;6.35;3.78;;;;;;;;;;7396368;19;20003;-70
2022/09/12 08:46:26;;;;;;;7.05;4.03;;;;;;;;;;7397152;19;20341;-71
2022/09/12 08:48:54;;;;;;;7.70;4.35;;;;;;;;;;7395094;19;20002;-69
2022/09/12 08:51:19;;;;;;;8.82;3.88;;;;;;;;;;7396696;19;19998;-70
2022/09/12 08:53:48;;;;;;;6.32;4.00;;;;;;;;;;7395044;19;20002;-70
2022/09/12 08:56:14;;;;;;;5.45;3.58;;;;;;;;;;7397001;19;20377;-71
2022/09/12 08:58:43;;;;;;;5.93;3.65;;;;;;;;;;7392287;19;20003;-73
2022/09/12 09:01:24;;;;;;;12.00;4.03;;;;;;;;;;7394993;19;20066;-71
2022/09/12 09:04:16;;;;;;;6.63;4.05;;;;;;;;;;7391991;19;20010;-71
2022/09/12 09:06:55;;;;;;;8.32;4.00;;;;;;;;;;7392564;19;20457;-71
2022/09/12 09:09:47;;;;;;;8.60;4.40;;;;;;;;;;7393264;19;20019;-71
2022/09/12 09:12:32;;;;;;;7.28;3.92;;;;;;;;;;7391650;19;20037;-71
2022/09/12 09:15:40;;;;;;;7.18;4.18;;;;;;;;;;7390708;19;20041;-71
2022/09/12 09:18:22;;;;;;;7.45;4.18;;;;;;;;;;7392590;19;20007;-71
2022/09/12 09:20:49;;;;;;;6.88;3.67;;;;;;;;;;7394613;19;20003;-71
2022/09/12 09:23:16;;;;;;;7.78;4.50;;;;;;;;;;7393192;19;20006;-71
2022/09/12 09:26:00;;;;;;;6.38;3.67;;;;;;;;;;7396521;19;20014;-70
2022/09/12 09:28:31;;;;;;;6.18;3.70;;;;;;;;;;7392949;19;20565;-71
2022/09/12 09:30:57;;;;;;;8.93;4.13;;;;;;;;;;7394851;19;20003;-71
2022/09/12 09:33:26;;;;;;;8.65;4.00;;;;;;;;;;7395444;19;20062;-71
2022/09/12 09:36:04;;;;;;;7.13;4.35;;;;;;;;;;7392135;19;20679;-72
2022/09/12 09:38:35;;;;;;;6.57;3.72;;;;;;;;;;7391599;19;20003;-72
2022/09/12 09:41:09;;;;;;;5.97;3.50;;;;;;;;;;7394488;19;20111;-72
2022/09/12 09:43:36;;;;;;;5.60;3.83;;;;;;;;;;7395901;19;20071;-71
2022/09/12 09:46:02;;;;;;;7.80;3.80;;;;;;;;;;7392812;19;20007;-71
2022/09/12 09:48:31;;;;;;;7.40;3.55;;;;;;;;;;7392769;19;20007;-71
2022/09/12 09:50:59;;;;;;;7.70;3.80;;;;;;;;;;7394154;19;20479;-71
2022/09/12 09:53:30;;;;;;;5.63;3.40;;;;;;;;;;7394473;19;20074;-72
2022/09/12 09:56:00;;;;;;;6.18;3.63;;;;;;;;;;7383364;19;20014;-70
2022/09/12 09:58:33;;;;;;;5.43;3.25;;;;;;;;;;7387675;19;19999;-71
2022/09/12 10:01:10;;;;;;;5.45;3.42;;;;;;;;;;7387604;19;20010;-71
2022/09/12 10:03:37;;;;;;;5.10;3.13;;;;;;;;;;7387427;19;19998;-72
2022/09/12 10:06:29;;;;;;;5.63;3.10;;;;;;;;;;7387796;19;19999;-71
2022/09/12 10:09:06;;;;;;;4.78;2.90;;;;;;;;;;7391720;19;20006;-73
2022/09/12 10:11:31;;;;;;;5.22;3.20;;;;;;;;;;7389348;19;20027;-72
2022/09/12 10:13:59;;;;;;;7.82;3.47;;;;;;;;;;7390075;19;20458;-72
2022/09/12 10:16:33;;;;;;;4.38;3.00;;;;;;;;;;7393288;19;19995;-72
2022/09/12 10:19:01;;;;;;;5.63;2.88;;;;;;;;;;7392864;19;19995;-71
2022/09/12 10:21:45;;;;;;;5.47;3.35;;;;;;;;;;7394456;19;20485;-70
2022/09/12 10:24:25;;;;;;;6.00;3.10;;;;;;;;;;7390710;19;20002;-73
2022/09/12 10:27:07;;;;;;;5.47;3.42;;;;;;;;;;7393488;19;19995;-73
2022/09/12 10:29:38;;;;;;;5.28;3.13;;;;;;;;;;7392567;19;20062;-71
2022/09/12 10:32:07;;;;;;;6.13;2.97;;;;;;;;;;7392597;19;20460;-71
2022/09/12 10:34:40;;;;;;;5.93;2.90;;;;;;;;;;7388905;19;20019;-72
2022/09/12 10:37:08;;;;;;;5.00;3.10;;;;;;;;;;7388866;19;20118;-72
2022/09/12 10:39:35;;;;;;;5.78;2.97;;;;;;;;;;7387340;19;20122;-72
2022/09/12 10:42:01;;;;;;;4.72;2.75;;;;;;;;;;7384908;19;20058;-71
2022/09/12 10:44:29;;;;;;;5.45;2.95;;;;;;;;;;7384764;19;19994;-73
2022/09/12 10:46:56;;;;;;;5.75;2.63;;;;;;;;;;7388534;19;20015;-72
2022/09/12 10:49:30;;;;;;;4.75;2.55;;;;;;;;;;7389227;19;20006;-72
2022/09/12 10:52:15;;;;;;;4.78;2.83;;;;;;;;;;7390864;19;20111;-72
2022/09/12 10:54:40;;;;;;;4.88;2.60;;;;;;;;;;7390307;19;20003;-72
2022/09/12 10:57:15;;;;;;;4.50;2.40;;;;;;;;;;7391853;19;20006;-72
2022/09/12 10:59:43;;;;;;;4.65;2.50;;;;;;;;;;7391582;19;20411;-72
2022/09/12 11:02:28;;;;;;;4.38;2.30;;;;;;;;;;7385695;19;20003;-72
2022/09/12 11:05:00;;;;;;;4.15;2.63;;;;;;;;;;7386472;19;19998;-72
2022/09/12 11:07:28;;;;;;;4.10;2.50;;;;;;;;;;7389526;19;20002;-72
2022/09/12 11:10:02;;;;;;;4.50;2.67;;;;;;;;;;7384267;19;20002;-72
2022/09/12 11:12:30;;;;;;;5.38;2.88;;;;;;;;;;7384198;19;20424;-72
2022/09/12 11:15:09;;;;;;;4.03;2.50;;;;;;;;;;7386299;19;20540;-72
2022/09/12 11:17:56;;;;;;;4.28;2.53;;;;;;;;;;7389043;19;19991;-74
2022/09/12 11:20:34;;;;;;;5.07;2.80;;;;;;;;;;7391273;19;20003;-73
2022/09/12 11:23:39;;;;;;;3.90;2.15;;;;;;;;;;7390547;19;20479;-73
2022/09/12 11:26:19;;;;;;;3.08;2.10;;;;;;;;;;7390902;19;20344;-72
2022/09/12 11:29:03;;;;;;;4.88;2.40;;;;;;;;;;7386375;19;20002;-72
2022/09/12 11:31:54;;;;;;;3.55;2.25;;;;;;;;;;7377239;19;20014;-72
2022/09/12 11:34:52;;;;;;;3.58;2.20;;;;;;;;;;7384826;19;20008;-72
2022/09/12 11:37:51;;;;;;;4.40;2.42;;;;;;;;;;7381428;19;19999;-72
2022/09/12 11:40:38;;;;;;;3.13;2.05;;;;;;;;;;7386603;19;20002;-71
2022/09/12 11:43:32;;;;;;;2.92;1.95;;;;;;;;;;7384703;19;20268;-71
2022/09/12 11:46:05;;;;;;;3.42;2.10;;;;;;;;;;7383562;19;20006;-71
2022/09/12 11:49:03;;;;;;;2.25;1.70;;;;;;;;;;7383435;19;20480;-71
2022/09/12 11:51:36;;;;;;;2.50;2.13;;;;;;;;;;7377579;19;20010;-72
2022/09/12 11:54:16;;;;;;;2.53;1.85;;;;;;;;;;7379434;19;20018;-73
2022/09/12 11:56:46;;;;;;;3.55;1.98;;;;;;;;;;7382866;19;20010;-73
2022/09/12 11:59:35;;;;;;;3.97;2.40;;;;;;;;;;7382429;19;20021;-72
2022/09/12 12:02:02;;;;;;;5.00;2.47;;;;;;;;;;7379348;19;20011;-72
2022/09/12 12:04:38;;;;;;;2.13;1.60;;;;;;;;;;7383569;19;19998;-73
2022/09/12 12:07:06;;;;;;;2.55;2.00;;;;;;;;;;7384625;19;20105;-72
2022/09/12 12:09:32;;;;;;;3.55;2.20;;;;;;;;;;7385231;19;20063;-72
2022/09/12 12:12:02;;;;;;;3.28;2.10;;;;;;;;;;7381920;19;20013;-72
2022/09/12 12:14:46;;;;;;;2.90;2.20;;;;;;;;;;7386172;19;20013;-72
2022/09/12 12:17:14;;;;;;;3.55;2.10;;;;;;;;;;7390600;19;19999;-72
2022/09/12 12:19:40;;;;;;;3.65;2.30;;;;;;;;;;7390973;19;20002;-72
2022/09/12 12:22:19;;;;;;;2.55;2.05;;;;;;;;;;7393391;19;20345;-72
2022/09/12 12:24:56;;;;;;;4.72;2.10;;;;;;;;;;7392556;19;20476;-72
2022/09/12 12:27:42;;;;;;;3.40;1.83;;;;;;;;;;7395232;19;20003;-72
2022/09/12 12:30:29;;;;;;;2.45;1.70;;;;;;;;;;7388714;19;20007;-72
2022/09/12 12:33:08;;;;;;;2.92;2.05;;;;;;;;;;7392056;19;20012;-73
2022/09/12 12:35:36;;;;;;;3.25;2.20;;;;;;;;;;7389163;19;20002;-71
2022/09/12 12:38:02;;;;;;;2.55;1.60;;;;;;;;;;7391488;19;20022;-71
2022/09/12 12:40:29;;;;;;;3.25;1.90;;;;;;;;;;7392378;19;20077;-72
2022/09/12 12:43:02;;;;;;;3.00;1.80;;;;;;;;;;7393439;19;20014;-72
2022/09/12 12:45:28;;;;;;;3.35;2.20;;;;;;;;;;7391611;19;20010;-72
2022/09/12 12:48:00;;;;;;;2.90;1.85;;;;;;;;;;7392066;19;20006;-72
2022/09/12 12:50:29;;;;;;;3.08;1.90;;;;;;;;;;7387385;19;20027;-71
2022/09/12 12:52:56;;;;;;;3.15;1.90;;;;;;;;;;7388771;19;19999;-72
2022/09/12 12:55:30;;;;;;;2.83;1.80;;;;;;;;;;7387419;19;20034;-71
2022/09/12 12:57:57;;;;;;;2.95;1.60;;;;;;;;;;7390079;19;20005;-72
2022/09/12 13:00:22;;;;;;;2.53;1.90;;;;;;;;;;7392944;19;20005;-71
2022/09/12 13:02:57;;;;;;;2.53;1.90;;;;;;;;;;7392617;19;20062;-71
2022/09/12 13:05:26;;;;;;;2.00;1.80;;;;;;;;;;7392921;19;20248;-71
2022/09/12 13:07:58;;;;;;;2.83;1.70;;;;;;;;;;7392556;19;20002;-71
2022/09/12 13:10:28;;;;;;;2.80;1.80;;;;;;;;;;7392801;19;20488;-72
2022/09/12 13:12:56;;;;;;;2.20;1.60;;;;;;;;;;7390833;19;20027;-72
2022/09/12 13:15:46;;;;;;;1.50;1.40;;;;;;;;;;7390255;19;20003;-74
2022/09/12 13:18:27;;;;;;;2.22;1.60;;;;;;;;;;7390400;19;20002;-72
2022/09/12 13:21:00;;;;;;;2.22;1.70;;;;;;;;;;7392216;19;20005;-72
2022/09/12 13:23:29;;;;;;;1.98;1.65;;;;;;;;;;7392352;19;20007;-73
2022/09/12 13:25:56;;;;;;;2.72;1.73;;;;;;;;;;7392310;19;20003;-73
2022/09/12 13:28:25;;;;;;;1.65;1.45;;;;;;;;;;7391005;19;20418;-73
2022/09/12 13:30:59;;;;;;;2.05;1.67;;;;;;;;;;7392011;19;20032;-73
2022/09/12 13:33:57;;;;;;;3.13;1.80;;;;;;;;;;7391339;19;20070;-73
2022/09/12 13:36:41;;;;;;;2.97;1.70;;;;;;;;;;7389811;19;20077;-73
2022/09/12 13:39:12;;;;;;;3.00;1.88;;;;;;;;;;7390674;19;20010;-72
2022/09/12 13:42:13;;;;;;;2.45;1.77;;;;;;;;;;7390864;19;20006;-72
2022/09/12 13:44:46;;;;;;;1.55;1.38;;;;;;;;;;7391450;19;20006;-72
2022/09/12 13:47:15;;;;;;;2.17;1.73;;;;;;;;;;7381993;19;20484;-71
2022/09/12 13:49:41;;;;;;;2.50;1.80;;;;;;;;;;7388866;19;20002;-71
2022/09/12 13:52:14;;;;;;;2.50;1.73;;;;;;;;;;7385786;19;20014;-72
2022/09/12 13:54:39;;;;;;;2.80;1.90;;;;;;;;;;7387548;19;20013;-72
2022/09/12 13:57:05;;;;;;;2.65;1.67;;;;;;;;;;7385894;19;20003;-72
2022/09/12 13:59:41;;;;;;;5.85;1.92;;;;;;;;;;7387629;19;20010;-72
2022/09/12 14:02:19;;;;;;;1.80;1.42;;;;;;;;;;7385462;19;20136;-72
2022/09/12 14:05:09;;;;;;;2.55;1.70;;;;;;;;;;7389267;19;20023;-71
2022/09/12 14:08:00;;;;;;;2.17;1.52;;;;;;;;;;7386808;19;20006;-71
2022/09/12 14:10:38;;;;;;;2.35;1.65;;;;;;;;;;7389155;19;20006;-71
2022/09/12 14:13:11;;;;;;;1.67;1.58;;;;;;;;;;7386285;19;20010;-71
2022/09/12 14:15:37;;;;;;;2.05;1.50;;;;;;;;;;7388891;19;19999;-71
2022/09/12 14:18:05;;;;;;;3.75;2.13;;;;;;;;;;7387833;19;19999;-71
2022/09/12 14:20:36;;;;;;;2.17;1.80;;;;;;;;;;7391293;19;20466;-72
2022/09/12 14:23:16;;;;;;;3.15;1.70;;;;;;;;;;7389143;19;20354;-71
2022/09/12 14:25:46;;;;;;;3.33;2.22;;;;;;;;;;7390016;19;20034;-72
2022/09/12 14:28:17;;;;;;;3.78;2.03;;;;;;;;;;7391581;19;20120;-71
2022/09/12 14:30:57;;;;;;;2.25;1.65;;;;;;;;;;7391173;19;20108;-71
2022/09/12 14:33:22;;;;;;;2.13;1.75;;;;;;;;;;7393479;19;20013;-72
2022/09/12 14:35:50;;;;;;;2.80;1.75;;;;;;;;;;7390316;19;20054;-72
2022/09/12 14:38:15;;;;;;;2.63;1.80;;;;;;;;;;7388863;19;20021;-71
2022/09/12 14:40:51;;;;;;;3.00;1.77;;;;;;;;;;7389734;19;20480;-72
2022/09/12 14:43:18;;;;;;;2.38;1.63;;;;;;;;;;7387954;19;20406;-72
2022/09/12 14:45:51;;;;;;;2.60;1.70;;;;;;;;;;7389768;19;20027;-72
2022/09/12 14:48:18;;;;;;;2.67;1.73;;;;;;;;;;7389659;19;20335;-73
2022/09/12 14:50:48;;;;;;;2.78;1.85;;;;;;;;;;7389503;19;20005;-73
2022/09/12 14:53:16;;;;;;;2.72;1.73;;;;;;;;;;7390677;19;20049;-72
2022/09/12 14:55:57;;;;;;;3.17;1.80;;;;;;;;;;7391643;19;20574;-72
2022/09/12 14:58:25;;;;;;;3.42;1.90;;;;;;;;;;7391075;19;20010;-73
2022/09/12 15:01:04;;;;;;;2.47;1.67;;;;;;;;;;7393025;19;20002;-73
2022/09/12 15:03:50;;;;;;;2.22;1.70;;;;;;;;;;7392725;19;19999;-72
2022/09/12 15:06:27;;;;;;;2.60;1.85;;;;;;;;;;7392583;19;20476;-73
2022/09/12 15:08:55;;;;;;;2.90;1.92;;;;;;;;;;7391799;19;20023;-72